createdAt,value
2023-05-31T00:03:30.877Z,99010.92
2023-05-31T00:06:03.637Z,99011.33
2023-05-31T00:08:43.536Z,99016.95
2023-05-31T00:11:15.947Z,99015.11
2023-05-31T00:13:54.302Z,99014.32
2023-05-31T00:17:01.427Z,99010.98
2023-05-31T00:20:12.401Z,99010.58
2023-05-31T00:23:18.197Z,99010.20
2023-05-31T00:25:50.431Z,99008.13
2023-05-31T00:28:22.668Z,99008.20
2023-05-31T00:35:27.335Z,99008.94
2023-05-31T00:38:28.914Z,99011.49
2023-05-31T00:41:01.616Z,99014.42
2023-05-31T00:43:34.263Z,99016.27
2023-05-31T00:46:06.631Z,99013.30
2023-05-31T00:48:45.311Z,99007.85
2023-05-31T00:51:20.136Z,99006.10
2023-05-31T00:54:00.097Z,99008.53
2023-05-31T00:56:32.842Z,99005.45
2023-05-31T00:59:14.640Z,99003.06
2023-05-31T01:01:47.296Z,99004.56
2023-05-31T01:04:27.405Z,99007.95
2023-05-31T01:07:02.131Z,99008.95
2023-05-31T01:10:46.152Z,99005.03
2023-05-31T01:26:13.901Z,99012.10
2023-05-31T01:36:47.860Z,99012.25
2023-05-31T01:39:53.845Z,99013.75
2023-05-31T01:46:59.107Z,99016.67
2023-05-31T01:49:31.618Z,99019.63
2023-05-31T01:52:04.767Z,99022.55
2023-05-31T01:54:37.167Z,99025.13
2023-05-31T01:57:17.533Z,99025.71
2023-05-31T02:00:13.914Z,99026.09
2023-05-31T02:03:32.564Z,99030.74
2023-05-31T02:06:14.332Z,99029.30
2023-05-31T02:09:32.062Z,99027.98
2023-05-31T02:12:12.569Z,99031.81
2023-05-31T02:19:58.511Z,99035.74
2023-05-31T02:22:37.386Z,99036.48
2023-05-31T02:28:59.380Z,99037.79
2023-05-31T02:31:31.671Z,99039.66
2023-05-31T02:34:12.403Z,99039.69
2023-05-31T02:36:44.692Z,99041.38
2023-05-31T02:39:24.483Z,99040.63
2023-05-31T02:47:05.520Z,99044.91
2023-05-31T02:49:44.789Z,99045.75
2023-05-31T02:52:17.416Z,99046.41
2023-05-31T02:55:35.871Z,99047.20
2023-05-31T02:58:48.599Z,99043.63
2023-05-31T03:02:28.702Z,99042.14
2023-05-31T03:05:48.652Z,99039.77
2023-05-31T03:08:21.322Z,99041.77
2023-05-31T03:11:00.834Z,99046.25
2023-05-31T03:13:33.558Z,99046.72
2023-05-31T03:20:40.150Z,99051.13
2023-05-31T03:23:19.588Z,99046.90
2023-05-31T03:25:52.008Z,99046.29
2023-05-31T03:32:56.697Z,99046.14
2023-05-31T03:35:29.519Z,99048.55
2023-05-31T03:38:08.676Z,99049.59
2023-05-31T03:40:41.073Z,99050.67
2023-05-31T03:43:33.487Z,99048.70
2023-05-31T03:46:07.317Z,99046.41
2023-05-31T03:48:39.889Z,99047.73
2023-05-31T03:51:19.498Z,99050.40
2023-05-31T03:53:52.072Z,99051.95
2023-05-31T03:56:33.174Z,99047.09
2023-05-31T04:04:23.848Z,99050.56
2023-05-31T04:11:28.979Z,99046.31
2023-05-31T04:23:50.410Z,99053.62
2023-05-31T04:27:48.814Z,99060.29
2023-05-31T04:30:27.462Z,99056.52
2023-05-31T04:37:32.510Z,99058.57
2023-05-31T04:40:14.782Z,99061.73
2023-05-31T04:42:47.101Z,99062.89
2023-05-31T04:45:58.994Z,99064.88
2023-05-31T04:52:48.739Z,99061.13
2023-05-31T04:55:28.544Z,99059.17
2023-05-31T04:58:22.632Z,99057.50
2023-05-31T05:00:55.568Z,99057.27
2023-05-31T05:03:52.392Z,99057.98
2023-05-31T05:06:25.636Z,99060.42
2023-05-31T05:12:45.939Z,99056.77
2023-05-31T05:15:18.542Z,99055.98
2023-05-31T05:17:58.509Z,99050.44
2023-05-31T05:20:35.229Z,99048.30
2023-05-31T05:34:36.282Z,99043.19
2023-05-31T05:38:34.597Z,99037.59
2023-05-31T05:41:15.546Z,99038.51
2023-05-31T05:44:08.596Z,99040.94
2023-05-31T05:47:15.361Z,99037.94
2023-05-31T05:49:49.854Z,99044.67
2023-05-31T05:52:22.762Z,99043.27
2023-05-31T05:54:55.016Z,99037.52
2023-05-31T05:57:28.150Z,99034.63
2023-05-31T06:00:13.370Z,99034.77
2023-05-31T06:03:21.249Z,99025.25
2023-05-31T06:05:54.539Z,99031.06
2023-05-31T06:09:28.177Z,99026.96
2023-05-31T06:12:01.768Z,99030.91
2023-05-31T06:14:44.676Z,99031.69
2023-05-31T06:17:16.888Z,99029.44
2023-05-31T06:19:49.129Z,99027.70
2023-05-31T06:23:16.122Z,99025.98
2023-05-31T06:34:51.740Z,99009.01
2023-05-31T06:37:32.495Z,99005.63
2023-05-31T06:40:06.204Z,99005.35
2023-05-31T06:42:38.987Z,99002.43
2023-05-31T06:46:25.462Z,98998.17
2023-05-31T06:53:42.712Z,98985.33
2023-05-31T06:56:53.747Z,98990.73
2023-05-31T06:59:26.036Z,98984.99
2023-05-31T07:02:30.935Z,98975.64
2023-05-31T07:05:03.529Z,98978.51
2023-05-31T07:07:36.060Z,98975.98
2023-05-31T07:10:10.171Z,98973.05
2023-05-31T07:12:42.907Z,98967.77
2023-05-31T07:19:20.308Z,98970.92
2023-05-31T07:27:22.359Z,98955.46
2023-05-31T07:30:14.350Z,98951.83
2023-05-31T07:33:28.295Z,98947.89
2023-05-31T07:36:03.311Z,98943.91
2023-05-31T07:38:36.071Z,98939.39
2023-05-31T07:48:16.008Z,98893.45
2023-05-31T07:50:54.681Z,98888.89
2023-05-31T07:57:59.759Z,98873.16
2023-05-31T08:00:38.603Z,98864.89
2023-05-31T08:03:11.167Z,98867.99
2023-05-31T08:10:15.667Z,98855.27
2023-05-31T08:12:55.419Z,98852.84
2023-05-31T08:15:29.100Z,98849.95
2023-05-31T08:26:40.052Z,98811.00
2023-05-31T08:29:18.597Z,98819.56
2023-05-31T08:36:02.391Z,98791.30
2023-05-31T08:46:07.915Z,98768.98
2023-05-31T08:58:00.304Z,98743.55
2023-05-31T09:00:39.415Z,98741.06
2023-05-31T09:03:12.678Z,98744.55
2023-05-31T09:06:09.361Z,98735.36
2023-05-31T09:08:41.610Z,98717.88
2023-05-31T09:11:14.193Z,98719.34
2023-05-31T09:13:54.108Z,98709.45
2023-05-31T09:16:27.132Z,98693.19
2023-05-31T09:19:07.141Z,98700.17
2023-05-31T09:26:03.155Z,98694.19
2023-05-31T09:33:09.364Z,98667.69
2023-05-31T09:44:34.455Z,98655.20
2023-05-31T09:56:46.598Z,98620.70
2023-05-31T09:59:41.998Z,98624.33
2023-05-31T10:03:07.091Z,98619.67
2023-05-31T10:10:13.330Z,98599.73
2023-05-31T10:21:30.060Z,98614.73
2023-05-31T10:24:28.036Z,98610.27
2023-05-31T10:36:27.977Z,98576.64
2023-05-31T10:43:42.882Z,98584.50
2023-05-31T10:49:41.132Z,98573.67
2023-05-31T10:57:31.884Z,98564.41
2023-05-31T11:07:39.896Z,98551.45
2023-05-31T11:23:08.799Z,98534.76
2023-05-31T11:30:16.732Z,98532.63
2023-05-31T11:37:18.269Z,98527.11
2023-05-31T11:39:50.865Z,98518.50
2023-05-31T11:47:14.600Z,98500.42
2023-05-31T11:50:20.327Z,98490.89
2023-05-31T11:52:56.024Z,98494.23
2023-05-31T11:56:18.710Z,98496.09
2023-05-31T11:58:59.822Z,98491.02
2023-05-31T12:10:12.845Z,98480.05
2023-05-31T12:12:47.985Z,98486.02
2023-05-31T12:19:53.724Z,98484.84
2023-05-31T12:22:27.649Z,98486.97
2023-05-31T12:25:01.830Z,98488.24
2023-05-31T12:28:02.180Z,98485.11
2023-05-31T12:30:46.352Z,98483.77
2023-05-31T12:34:17.128Z,98478.72
2023-05-31T12:45:33.105Z,98462.60
2023-05-31T12:49:03.687Z,98470.61
2023-05-31T13:14:12.841Z,98493.76
2023-05-31T13:21:15.768Z,98497.23
2023-05-31T13:23:47.812Z,98488.11
2023-05-31T13:30:14.083Z,98486.88
2023-05-31T13:32:47.520Z,98487.58
2023-05-31T13:35:26.242Z,98483.09
2023-05-31T13:37:58.428Z,98489.73
2023-05-31T13:40:38.303Z,98491.14
2023-05-31T13:43:11.298Z,98488.89
2023-05-31T13:45:43.577Z,98474.55
2023-05-31T13:48:15.856Z,98474.23
2023-05-31T13:50:48.217Z,98482.29
2023-05-31T13:57:37.632Z,98476.11
2023-05-31T14:03:43.591Z,98465.66
2023-05-31T14:10:14.906Z,98452.10
2023-05-31T14:12:47.736Z,98455.52
2023-05-31T14:15:20.065Z,98449.40
2023-05-31T14:17:52.378Z,98446.43
2023-05-31T14:21:15.964Z,98442.98
2023-05-31T14:23:48.494Z,98444.58
2023-05-31T14:26:21.444Z,98445.86
2023-05-31T14:29:00.311Z,98450.54
2023-05-31T14:31:32.736Z,98446.34
2023-05-31T14:38:39.969Z,98445.87
2023-05-31T14:48:39.785Z,98440.13
2023-05-31T14:51:18.132Z,98432.55
2023-05-31T14:53:51.926Z,98430.67
2023-05-31T14:56:45.499Z,98430.91
2023-05-31T15:03:51.556Z,98419.61
2023-05-31T15:15:19.512Z,98419.20
2023-05-31T15:17:51.712Z,98414.73
2023-05-31T15:20:24.218Z,98419.95
2023-05-31T15:22:56.223Z,98420.33
2023-05-31T15:25:28.231Z,98418.79
2023-05-31T15:32:35.202Z,98406.95
2023-05-31T15:39:03.276Z,98399.20
2023-05-31T15:42:16.084Z,98396.40
2023-05-31T15:44:54.218Z,98387.77
2023-05-31T15:47:26.412Z,98388.05
2023-05-31T15:50:05.630Z,98392.93
2023-05-31T15:52:37.700Z,98394.67
2023-05-31T15:55:11.136Z,98390.64
2023-05-31T15:57:43.178Z,98386.52
2023-05-31T16:00:17.847Z,98381.52
2023-05-31T16:02:53.031Z,98376.03
2023-05-31T16:05:26.267Z,98371.85
2023-05-31T16:08:01.066Z,98372.87
2023-05-31T16:10:34.557Z,98371.51
2023-05-31T16:13:09.057Z,98368.43
2023-05-31T16:15:43.148Z,98361.33
2023-05-31T16:18:15.585Z,98362.23
2023-05-31T16:20:48.300Z,98362.58
2023-05-31T16:23:20.558Z,98360.70
2023-05-31T16:25:54.581Z,98360.20
2023-05-31T16:28:27.015Z,98361.79
2023-05-31T16:31:13.466Z,98363.35
2023-05-31T16:33:46.755Z,98368.61
2023-05-31T16:36:19.275Z,98371.05
2023-05-31T16:39:02.286Z,98370.95
2023-05-31T16:41:34.510Z,98381.38
2023-05-31T16:44:46.307Z,98387.90
2023-05-31T16:47:20.621Z,98396.91
2023-05-31T16:49:52.920Z,98396.13
2023-05-31T16:52:25.680Z,98438.88
2023-05-31T16:54:59.131Z,98498.68
2023-05-31T16:57:31.246Z,98469.92
2023-05-31T17:00:03.376Z,98460.94
2023-05-31T17:02:35.854Z,98471.65
2023-05-31T17:05:10.661Z,98475.67
2023-05-31T17:07:55.951Z,98477.88
2023-05-31T17:10:28.722Z,98486.35
2023-05-31T17:13:04.642Z,98489.36
2023-05-31T17:15:37.091Z,98497.02
2023-05-31T17:18:09.592Z,98501.04
2023-05-31T17:20:44.549Z,98505.81
2023-05-31T17:23:29.868Z,98502.80
2023-05-31T17:26:02.521Z,98509.39
2023-05-31T17:28:35.004Z,98511.28
2023-05-31T17:31:07.882Z,98510.23
2023-05-31T17:33:40.140Z,98513.15
2023-05-31T17:36:13.253Z,98512.81
2023-05-31T17:38:45.450Z,98514.89
2023-05-31T17:41:19.807Z,98524.23
2023-05-31T17:44:01.407Z,98527.35
2023-05-31T17:46:33.697Z,98524.86
2023-05-31T17:49:06.028Z,98523.38
2023-05-31T17:51:38.735Z,98528.80
2023-05-31T17:54:11.711Z,98524.77
2023-05-31T17:56:45.580Z,98528.46
2023-05-31T17:59:18.328Z,98530.47
2023-05-31T18:01:53.110Z,98536.27
2023-05-31T18:04:34.728Z,98539.24
2023-05-31T18:07:07.505Z,98541.47
2023-05-31T18:09:39.721Z,98544.31
2023-05-31T18:12:12.733Z,98550.60
2023-05-31T18:14:46.018Z,98553.33
2023-05-31T18:17:18.622Z,98552.48
2023-05-31T18:19:50.855Z,98558.94
2023-05-31T18:22:23.859Z,98562.94
2023-05-31T18:24:57.153Z,98562.09
2023-05-31T18:27:29.322Z,98561.67
2023-05-31T18:30:02.018Z,98562.47
2023-05-31T18:32:36.698Z,98562.20
2023-05-31T18:35:09.903Z,98559.85
2023-05-31T18:37:44.524Z,98561.67
2023-05-31T18:40:16.790Z,98568.61
2023-05-31T18:42:49.112Z,98579.92
2023-05-31T18:45:21.295Z,98584.90
2023-05-31T18:47:53.916Z,98591.86
2023-05-31T18:50:26.615Z,98591.57
2023-05-31T18:52:58.896Z,98594.11
2023-05-31T18:55:31.978Z,98595.89
2023-05-31T18:58:06.367Z,98605.20
2023-05-31T19:00:47.428Z,98611.95
2023-05-31T19:03:20.006Z,98611.73
2023-05-31T19:05:54.298Z,98616.95
2023-05-31T19:08:28.452Z,98622.84
2023-05-31T19:11:01.274Z,98629.02
2023-05-31T19:13:33.992Z,98630.77
2023-05-31T19:16:06.848Z,98634.20
2023-05-31T19:18:39.365Z,98641.34
2023-05-31T19:21:11.663Z,98651.10
2023-05-31T19:23:45.941Z,98652.52
2023-05-31T19:29:32.553Z,98660.64
2023-05-31T19:32:10.840Z,98666.04
2023-05-31T19:34:59.823Z,98668.26
2023-05-31T19:37:32.538Z,98671.20
2023-05-31T19:40:08.962Z,98670.88
2023-05-31T19:42:51.439Z,98665.32
2023-05-31T19:45:23.922Z,98659.94
2023-05-31T19:47:56.233Z,98661.73
2023-05-31T19:50:36.338Z,98663.30
2023-05-31T19:53:08.563Z,98668.08
2023-05-31T19:55:42.535Z,98664.56
2023-05-31T19:58:28.931Z,98661.56
2023-05-31T20:04:55.451Z,98667.27
2023-05-31T20:07:27.739Z,98665.61
2023-05-31T20:14:30.917Z,98664.20
2023-05-31T20:17:03.153Z,98671.83
2023-05-31T20:19:36.711Z,98668.97
2023-05-31T20:22:10.086Z,98667.27
2023-05-31T20:24:49.059Z,98661.70
2023-05-31T20:28:07.949Z,98659.02
